Time;durP1;ratioP1;P1;durP2;ratioP2;P2;SDS_P1;SDS_P2;PMS_P1;PMS_P2;Temp;Humidity;BMP_temperature;BMP_pressure;BME280_temperature;BME280_humidity;BME280_pressure;Samples;Min_cycle;Max_cycle;Signal;HPM_P1;HPM_P2
2021/06/25 00:02:23;;;;;;;201.12;184.18;;;;;;;;;;4138200;34;20462;-85
2021/06/25 00:04:52;;;;;;;208.40;191.65;;;;;;;;;;4136637;34;20155;-84
2021/06/25 00:07:20;;;;;;;236.90;218.20;;;;;;;;;;4136496;34;20107;-85
2021/06/25 00:09:49;;;;;;;228.90;210.32;;;;;;;;;;4135069;34;20124;-84
2021/06/25 00:12:17;;;;;;;240.02;217.40;;;;;;;;;;4134094;34;20353;-84
2021/06/25 00:14:46;;;;;;;217.50;195.90;;;;;;;;;;4133407;34;20102;-85
2021/06/25 00:17:14;;;;;;;273.98;249.50;;;;;;;;;;4134011;34;20139;-85
2021/06/25 00:19:45;;;;;;;230.73;211.07;;;;;;;;;;4136177;34;20227;-85
2021/06/25 00:22:14;;;;;;;226.45;207.48;;;;;;;;;;4136141;34;20570;-85
2021/06/25 00:24:42;;;;;;;246.57;226.15;;;;;;;;;;4134412;34;20122;-84
2021/06/25 00:27:11;;;;;;;227.82;209.05;;;;;;;;;;4133728;34;20068;-84
2021/06/25 00:29:39;;;;;;;262.50;242.13;;;;;;;;;;4133790;34;20118;-85
2021/06/25 00:32:09;;;;;;;213.60;195.43;;;;;;;;;;4135198;34;20135;-85
2021/06/25 00:34:38;;;;;;;206.70;188.90;;;;;;;;;;4134413;34;20384;-84
2021/06/25 00:37:07;;;;;;;213.70;193.60;;;;;;;;;;4136359;34;20075;-85
2021/06/25 00:39:35;;;;;;;223.77;203.65;;;;;;;;;;4133562;34;20115;-85
2021/06/25 00:42:05;;;;;;;221.25;199.98;;;;;;;;;;4135442;34;20103;-85
2021/06/25 00:44:33;;;;;;;221.85;201.60;;;;;;;;;;4120587;34;20072;-84
2021/06/25 00:47:02;;;;;;;216.02;195.98;;;;;;;;;;4133658;34;20139;-85
2021/06/25 00:49:31;;;;;;;208.38;188.32;;;;;;;;;;4134397;34;20465;-85
2021/06/25 00:52:03;;;;;;;222.12;200.93;;;;;;;;;;4135217;34;20088;-85
2021/06/25 00:54:32;;;;;;;220.55;199.82;;;;;;;;;;4132394;34;20124;-85
2021/06/25 00:57:02;;;;;;;220.12;199.10;;;;;;;;;;4134235;34;20111;-85
2021/06/25 00:59:32;;;;;;;227.62;205.80;;;;;;;;;;4133569;34;20757;-84
2021/06/25 01:02:01;;;;;;;220.50;199.95;;;;;;;;;;4133077;34;20107;-84
2021/06/25 01:04:30;;;;;;;227.87;207.25;;;;;;;;;;4135871;34;20096;-84
2021/06/25 01:06:59;;;;;;;233.82;212.80;;;;;;;;;;4140102;34;20397;-84
2021/06/25 01:09:29;;;;;;;213.32;195.30;;;;;;;;;;4126128;34;21823;-85
2021/06/25 01:11:59;;;;;;;210.25;192.75;;;;;;;;;;4132384;34;20104;-85
2021/06/25 01:14:28;;;;;;;207.52;190.85;;;;;;;;;;4149401;34;20070;-85
2021/06/25 01:16:56;;;;;;;219.45;199.85;;;;;;;;;;4147277;34;20131;-85
2021/06/25 01:19:24;;;;;;;224.60;205.52;;;;;;;;;;4129751;34;20056;-85
2021/06/25 01:21:53;;;;;;;231.75;212.10;;;;;;;;;;4129027;34;20550;-85
2021/06/25 01:24:22;;;;;;;225.20;207.35;;;;;;;;;;4147074;34;20282;-85
2021/06/25 01:26:51;;;;;;;218.07;200.57;;;;;;;;;;4145287;34;20099;-84
2021/06/25 01:29:20;;;;;;;244.70;223.93;;;;;;;;;;4143301;34;20602;-85
2021/06/25 01:31:48;;;;;;;212.02;194.98;;;;;;;;;;4132414;34;20107;-85
2021/06/25 01:34:17;;;;;;;200.93;184.43;;;;;;;;;;4143962;34;20449;-84
2021/06/25 01:36:46;;;;;;;195.98;179.15;;;;;;;;;;4141403;34;20559;-85
2021/06/25 01:39:15;;;;;;;192.52;175.65;;;;;;;;;;4119467;34;20779;-86
2021/06/25 01:41:43;;;;;;;206.65;189.77;;;;;;;;;;4112486;34;20386;-83
2021/06/25 01:44:12;;;;;;;198.75;182.35;;;;;;;;;;4130620;34;20276;-84
2021/06/25 01:46:42;;;;;;;198.07;180.70;;;;;;;;;;4130449;34;20056;-84
2021/06/25 01:49:12;;;;;;;225.05;204.85;;;;;;;;;;4133358;34;20123;-84
2021/06/25 01:51:41;;;;;;;239.93;218.85;;;;;;;;;;4134798;34;20123;-84
2021/06/25 01:54:09;;;;;;;246.85;225.07;;;;;;;;;;4135005;34;20169;-84
2021/06/25 01:56:37;;;;;;;215.00;197.82;;;;;;;;;;4133928;34;20336;-84
2021/06/25 01:59:06;;;;;;;225.45;206.70;;;;;;;;;;4133846;34;20075;-84
2021/06/25 02:01:35;;;;;;;221.18;203.07;;;;;;;;;;4133180;34;20534;-84
2021/06/25 02:04:04;;;;;;;225.48;206.70;;;;;;;;;;4137983;34;20120;-84
2021/06/25 02:06:32;;;;;;;215.68;197.77;;;;;;;;;;4131516;34;20103;-84
2021/06/25 02:09:01;;;;;;;226.60;205.85;;;;;;;;;;4133010;34;20529;-84
2021/06/25 02:11:30;;;;;;;230.73;209.10;;;;;;;;;;4132065;34;20057;-84
2021/06/25 02:13:58;;;;;;;228.50;207.10;;;;;;;;;;4134131;34;20131;-83
2021/06/25 02:16:28;;;;;;;205.68;187.27;;;;;;;;;;4131825;34;20332;-84
2021/06/25 02:18:57;;;;;;;206.48;188.55;;;;;;;;;;4132994;34;20099;-84
2021/06/25 02:21:25;;;;;;;213.93;195.00;;;;;;;;;;4132787;34;20057;-84
2021/06/25 02:23:55;;;;;;;221.43;202.93;;;;;;;;;;4133137;34;20224;-84
2021/06/25 02:26:23;;;;;;;214.25;196.02;;;;;;;;;;4130353;34;20131;-84
2021/06/25 02:28:52;;;;;;;215.32;196.20;;;;;;;;;;4135640;34;20096;-84
2021/06/25 02:31:20;;;;;;;225.20;206.27;;;;;;;;;;4134362;34;20049;-84
2021/06/25 02:33:49;;;;;;;214.70;195.98;;;;;;;;;;4140866;34;20102;-84
2021/06/25 02:36:19;;;;;;;227.35;206.87;;;;;;;;;;4134704;34;20099;-84
2021/06/25 02:38:47;;;;;;;228.23;208.85;;;;;;;;;;4134209;34;20472;-84
2021/06/25 02:41:17;;;;;;;235.73;215.65;;;;;;;;;;4135568;34;20120;-84
2021/06/25 02:43:46;;;;;;;228.25;208.87;;;;;;;;;;4145955;34;20473;-84
2021/06/25 02:46:16;;;;;;;230.37;210.48;;;;;;;;;;4147355;34;20078;-84
2021/06/25 02:48:44;;;;;;;234.45;212.95;;;;;;;;;;4135874;34;20056;-84
2021/06/25 02:51:13;;;;;;;254.80;232.95;;;;;;;;;;4145088;34;20108;-83
2021/06/25 02:53:41;;;;;;;247.30;226.02;;;;;;;;;;4147361;34;20486;-84
2021/06/25 02:56:10;;;;;;;215.77;197.73;;;;;;;;;;4139729;34;20226;-84
2021/06/25 02:58:38;;;;;;;206.82;189.50;;;;;;;;;;4129337;34;20165;-84
2021/06/25 03:01:07;;;;;;;224.62;206.30;;;;;;;;;;4153966;34;20098;-84
2021/06/25 03:03:35;;;;;;;218.10;200.18;;;;;;;;;;4148187;34;20635;-84
2021/06/25 03:06:04;;;;;;;224.93;206.25;;;;;;;;;;4153515;34;20378;-84
2021/06/25 03:08:32;;;;;;;212.57;193.77;;;;;;;;;;4140379;34;20099;-84
2021/06/25 03:11:04;;;;;;;212.77;195.73;;;;;;;;;;4175730;29;20086;-95
2021/06/25 03:13:32;;;;;;;214.75;197.37;;;;;;;;;;4144457;34;20098;-95
2021/06/25 03:16:08;;;;;;;243.00;221.70;;;;;;;;;;4140716;34;20092;-96
2021/06/25 03:18:39;;;;;;;224.50;206.40;;;;;;;;;;4150061;34;20133;-95
2021/06/25 03:21:13;;;;;;;221.00;202.50;;;;;;;;;;4127134;34;20053;-94
2021/06/25 03:23:44;;;;;;;219.45;201.77;;;;;;;;;;4133380;34;20049;-93
2021/06/25 03:26:18;;;;;;;231.20;211.20;;;;;;;;;;4146324;34;20080;-94
2021/06/25 03:28:47;;;;;;;196.23;180.35;;;;;;;;;;4147423;34;20052;-95
2021/06/25 03:31:21;;;;;;;210.10;191.30;;;;;;;;;;4136664;34;20068;-95
2021/06/25 03:33:56;;;;;;;200.38;182.00;;;;;;;;;;4144706;34;20171;-96
2021/06/25 03:36:26;;;;;;;200.23;182.37;;;;;;;;;;4115508;34;20124;-94
2021/06/25 03:38:58;;;;;;;221.82;202.68;;;;;;;;;;4152504;34;20472;-95
2021/06/25 03:41:28;;;;;;;183.00;167.20;;;;;;;;;;4140024;34;20125;-93
2021/06/25 03:44:07;;;;;;;191.60;175.52;;;;;;;;;;4139350;34;20044;-93
2021/06/25 03:46:40;;;;;;;183.20;167.37;;;;;;;;;;4135388;34;20083;-93
2021/06/25 03:49:09;;;;;;;209.77;190.90;;;;;;;;;;4138561;34;20065;-95
2021/06/25 03:51:43;;;;;;;206.05;187.60;;;;;;;;;;4132540;34;20092;-95
2021/06/25 03:54:11;;;;;;;215.43;196.45;;;;;;;;;;4131763;34;20048;-94
2021/06/25 03:56:44;;;;;;;244.65;225.82;;;;;;;;;;4139080;34;20076;-95
2021/06/25 03:59:19;;;;;;;239.65;220.80;;;;;;;;;;4131027;34;20114;-93
2021/06/25 04:01:52;;;;;;;225.98;207.60;;;;;;;;;;4133247;34;20156;-94
2021/06/25 04:04:21;;;;;;;228.02;209.10;;;;;;;;;;4148696;34;20109;-93
2021/06/25 04:06:52;;;;;;;224.12;205.90;;;;;;;;;;4137947;34;20056;-95
2021/06/25 04:09:25;;;;;;;213.55;194.62;;;;;;;;;;4137086;34;20356;-93
2021/06/25 04:11:56;;;;;;;241.60;221.25;;;;;;;;;;4129084;34;20672;-94
2021/06/25 04:14:25;;;;;;;209.25;192.13;;;;;;;;;;4136467;34;20122;-94
2021/06/25 04:17:00;;;;;;;215.25;198.10;;;;;;;;;;4141466;34;20792;-94
2021/06/25 04:19:44;;;;;;;200.93;184.80;;;;;;;;;;4141104;34;20056;-95
2021/06/25 04:22:15;;;;;;;227.57;207.55;;;;;;;;;;4132593;34;20088;-95
2021/06/25 04:24:46;;;;;;;225.98;205.30;;;;;;;;;;4136947;34;20088;-93
2021/06/25 04:27:20;;;;;;;225.80;205.65;;;;;;;;;;4146735;34;20465;-95
2021/06/25 04:29:55;;;;;;;222.40;202.05;;;;;;;;;;4130166;34;20997;-94
2021/06/25 04:32:28;;;;;;;201.37;184.60;;;;;;;;;;4143476;34;20469;-93
2021/06/25 04:34:58;;;;;;;228.27;208.52;;;;;;;;;;4135793;34;20083;-96
2021/06/25 04:37:32;;;;;;;227.00;207.12;;;;;;;;;;4136524;34;20450;-94
2021/06/25 04:40:09;;;;;;;252.48;231.75;;;;;;;;;;4140298;34;20415;-93
2021/06/25 04:42:42;;;;;;;245.37;224.40;;;;;;;;;;4147047;34;20056;-95
2021/06/25 04:45:22;;;;;;;230.50;210.63;;;;;;;;;;4133459;34;20126;-93
2021/06/25 04:47:51;;;;;;;231.18;210.88;;;;;;;;;;4152836;34;20074;-94
2021/06/25 04:50:26;;;;;;;217.52;198.55;;;;;;;;;;4141098;34;20456;-94
2021/06/25 04:53:08;;;;;;;224.07;204.45;;;;;;;;;;4135347;34;20139;-94
2021/06/25 04:55:44;;;;;;;221.10;201.85;;;;;;;;;;4136055;34;20112;-93
2021/06/25 04:58:16;;;;;;;202.15;185.85;;;;;;;;;;4136067;34;20112;-95
2021/06/25 05:00:46;;;;;;;195.68;179.38;;;;;;;;;;4146245;34;20068;-96
2021/06/25 05:03:21;;;;;;;190.23;174.40;;;;;;;;;;4129537;34;20059;-96
2021/06/25 05:05:52;;;;;;;194.65;178.98;;;;;;;;;;4137342;34;20057;-94
2021/06/25 05:08:21;;;;;;;215.02;198.30;;;;;;;;;;4134047;34;20064;-93
2021/06/25 05:10:49;;;;;;;192.02;176.20;;;;;;;;;;4136382;34;20046;-95
2021/06/25 05:13:20;;;;;;;190.12;174.48;;;;;;;;;;4127660;34;20074;-94
2021/06/25 05:15:51;;;;;;;207.70;190.05;;;;;;;;;;4137502;34;20052;-94
2021/06/25 05:18:26;;;;;;;216.43;198.15;;;;;;;;;;4134057;34;20089;-93
2021/06/25 05:21:15;;;;;;;203.73;187.68;;;;;;;;;;4132132;34;20134;-94
2021/06/25 05:23:45;;;;;;;212.90;196.15;;;;;;;;;;4138379;34;20787;-95
2021/06/25 05:26:19;;;;;;;250.50;230.10;;;;;;;;;;4141259;34;20068;-96
2021/06/25 05:28:54;;;;;;;219.87;201.90;;;;;;;;;;4134793;34;20069;-95
2021/06/25 05:31:30;;;;;;;223.98;205.90;;;;;;;;;;4126514;34;20230;-94
2021/06/25 05:34:04;;;;;;;210.32;193.37;;;;;;;;;;4127700;34;20644;-94
2021/06/25 05:36:39;;;;;;;214.50;197.40;;;;;;;;;;4125336;34;20489;-94
2021/06/25 05:39:10;;;;;;;195.57;179.23;;;;;;;;;;4133253;34;20396;-94
2021/06/25 05:41:42;;;;;;;218.90;201.57;;;;;;;;;;4135874;34;20091;-95
2021/06/25 05:44:16;;;;;;;203.93;187.37;;;;;;;;;;4137286;34;20056;-95
2021/06/25 05:46:48;;;;;;;204.55;188.02;;;;;;;;;;4129145;34;20097;-92
2021/06/25 05:49:17;;;;;;;204.60;188.20;;;;;;;;;;4129417;34;20487;-93
2021/06/25 05:52:04;;;;;;;230.45;210.45;;;;;;;;;;4146772;34;20147;-96
2021/06/25 05:54:36;;;;;;;212.50;194.82;;;;;;;;;;4138272;34;20144;-96
2021/06/25 05:57:11;;;;;;;215.10;197.37;;;;;;;;;;4139606;34;20060;-95
2021/06/25 05:59:46;;;;;;;;;;;;;;;;;;4131076;34;20469;-94
2021/06/25 06:02:19;;;;;;;220.37;203.45;;;;;;;;;;4135247;34;20370;-93
2021/06/25 06:04:56;;;;;;;213.10;195.90;;;;;;;;;;4145588;34;20120;-95
2021/06/25 06:07:46;;;;;;;225.52;206.02;;;;;;;;;;4127966;34;20075;-94
2021/06/25 06:10:22;;;;;;;223.35;203.68;;;;;;;;;;4133544;34;20439;-95
2021/06/25 06:12:56;;;;;;;220.27;201.10;;;;;;;;;;4140738;34;20100;-94
2021/06/25 06:15:28;;;;;;;217.75;198.87;;;;;;;;;;4153816;34;21037;-95
2021/06/25 06:18:01;;;;;;;215.70;196.90;;;;;;;;;;4146985;34;20065;-94
2021/06/25 06:20:32;;;;;;;213.60;194.10;;;;;;;;;;4141809;34;20118;-95
2021/06/25 06:32:18;;;;;;;220.65;202.68;;;;;;;;;;4140361;34;20100;-95
2021/06/25 06:34:59;;;;;;;242.35;222.27;;;;;;;;;;4132868;34;20071;-94
2021/06/25 06:40:23;;;;;;;226.18;206.35;;;;;;;;;;4145411;34;20094;-95
2021/06/25 06:43:29;;;;;;;253.25;233.85;;;;;;;;;;4132646;34;20096;-95
2021/06/25 06:46:38;;;;;;;232.15;212.70;;;;;;;;;;4136891;34;20499;-96
2021/06/25 06:49:12;;;;;;;270.58;248.38;;;;;;;;;;4145498;34;20157;-96
2021/06/25 06:51:56;;;;;;;247.48;228.30;;;;;;;;;;4136189;34;20431;-95
2021/06/25 06:54:40;;;;;;;235.65;217.00;;;;;;;;;;4140281;34;20044;-95
2021/06/25 06:57:48;;;;;;;237.70;219.10;;;;;;;;;;4132527;34;20418;-94
2021/06/25 07:01:19;;;;;;;266.35;245.12;;;;;;;;;;4133592;34;20052;-95
2021/06/25 07:04:24;;;;;;;280.02;257.45;;;;;;;;;;4139595;34;20072;-96
2021/06/25 07:07:43;;;;;;;52.67;48.13;;;;;;;;;;4127237;34;20158;-95
2021/06/25 07:10:50;;;;;;;31.37;28.53;;;;;;;;;;4138666;34;20099;-96
2021/06/25 07:13:27;;;;;;;42.58;39.15;;;;;;;;;;4135366;34;20051;-94
2021/06/25 07:16:28;;;;;;;83.75;77.70;;;;;;;;;;4131538;34;20092;-95
2021/06/25 07:19:32;;;;;;;85.62;80.22;;;;;;;;;;4104441;34;20479;-95
2021/06/25 07:23:04;;;;;;;151.68;142.35;;;;;;;;;;4092860;35;20117;-93
2021/06/25 07:25:47;;;;;;;31.40;29.30;;;;;;;;;;4079662;35;20080;-96
2021/06/25 07:28:47;;;;;;;95.78;87.65;;;;;;;;;;4085558;35;20085;-93
2021/06/25 07:31:22;;;;;;;97.70;90.40;;;;;;;;;;4101482;34;20541;-96
2021/06/25 07:33:53;;;;;;;44.50;41.10;;;;;;;;;;4133543;34;22826;-94
2021/06/25 07:36:49;;;;;;;91.55;84.57;;;;;;;;;;4144638;34;20108;-94
2021/06/25 07:39:24;;;;;;;29.65;27.42;;;;;;;;;;4144851;34;20402;-95
2021/06/25 07:42:15;;;;;;;30.45;27.95;;;;;;;;;;4139944;34;20114;-96
2021/06/25 07:44:50;;;;;;;29.42;27.00;;;;;;;;;;4142844;34;20065;-95
2021/06/25 07:47:28;;;;;;;19.10;16.67;;;;;;;;;;4139507;34;20123;-96
2021/06/25 07:50:00;;;;;;;24.27;22.40;;;;;;;;;;4134047;34;20112;-96
2021/06/25 07:52:34;;;;;;;;;;;;;;;;;;4143294;34;20055;-96
2021/06/25 07:55:21;;;;;;;60.83;56.28;;;;;;;;;;4132211;34;19960;-96
2021/06/25 07:57:52;;;;;;;56.53;50.75;;;;;;;;;;4147018;34;20455;-95
2021/06/25 08:00:33;;;;;;;74.32;68.65;;;;;;;;;;4144186;34;20447;-94
2021/06/25 08:03:09;;;;;;;21.40;19.08;;;;;;;;;;4136020;34;20471;-96
2021/06/25 08:05:43;;;;;;;50.42;46.85;;;;;;;;;;4137576;34;20085;-95
2021/06/25 08:08:22;;;;;;;42.72;39.22;;;;;;;;;;4137069;34;20104;-96
2021/06/25 08:10:53;;;;;;;26.65;24.48;;;;;;;;;;4152787;34;20099;-96
2021/06/25 08:13:22;;;;;;;24.77;22.35;;;;;;;;;;4141731;34;20061;-93
2021/06/25 08:15:57;;;;;;;78.03;71.70;;;;;;;;;;4135315;34;20109;-94
2021/06/25 08:18:32;;;;;;;72.62;66.90;;;;;;;;;;4133807;34;20118;-94
2021/06/25 08:21:04;;;;;;;48.13;44.05;;;;;;;;;;4148052;34;20497;-94
2021/06/25 08:23:38;;;;;;;39.38;35.70;;;;;;;;;;4144234;34;20127;-95
2021/06/25 08:26:09;;;;;;;40.17;37.08;;;;;;;;;;4134061;34;20071;-94
2021/06/25 08:28:43;;;;;;;20.35;17.62;;;;;;;;;;4144541;34;20056;-95
2021/06/25 08:31:11;;;;;;;85.87;79.97;;;;;;;;;;4133587;34;20468;-93
2021/06/25 08:33:44;;;;;;;20.80;18.80;;;;;;;;;;4143332;34;20067;-95
2021/06/25 08:36:13;;;;;;;15.15;13.85;;;;;;;;;;4134314;34;20445;-94
2021/06/25 08:38:46;;;;;;;59.33;54.35;;;;;;;;;;4134638;34;20151;-95
2021/06/25 08:41:20;;;;;;;;;;;;;;;;;;4134144;34;20052;-96
2021/06/25 08:43:53;;;;;;;88.30;82.15;;;;;;;;;;4132000;34;19982;-96
2021/06/25 08:46:24;;;;;;;39.05;36.03;;;;;;;;;;4137886;34;20064;-95
2021/06/25 08:48:53;;;;;;;92.05;85.38;;;;;;;;;;4128394;34;20081;-96
2021/06/25 08:51:25;;;;;;;90.40;83.80;;;;;;;;;;4154258;34;20112;-96
2021/06/25 08:53:56;;;;;;;69.40;64.53;;;;;;;;;;4124946;34;20124;-96
2021/06/25 08:56:30;;;;;;;65.55;60.88;;;;;;;;;;4131499;34;20826;-93
2021/06/25 08:59:02;;;;;;;61.90;57.42;;;;;;;;;;4132250;34;20052;-93
2021/06/25 09:01:36;;;;;;;;;;;;;;;;;;4133171;34;20084;-94
2021/06/25 09:04:08;;;;;;;90.03;84.03;;;;;;;;;;4151316;34;19978;-93
2021/06/25 09:06:53;;;;;;;96.20;89.13;;;;;;;;;;4133462;34;20087;-94
2021/06/25 09:09:21;;;;;;;51.42;48.08;;;;;;;;;;4131694;34;20063;-92
2021/06/25 09:12:13;;;;;;;109.80;101.78;;;;;;;;;;4138666;34;20115;-96
2021/06/25 09:15:08;;;;;;;151.37;140.30;;;;;;;;;;4126119;34;20065;-92
2021/06/25 09:17:58;;;;;;;197.62;181.12;;;;;;;;;;4139824;34;20769;-93
2021/06/25 09:20:40;;;;;;;21.98;20.33;;;;;;;;;;4137242;34;20224;-94
2021/06/25 09:23:17;;;;;;;155.15;142.68;;;;;;;;;;4124150;34;20064;-93
2021/06/25 09:26:06;;;;;;;65.12;60.17;;;;;;;;;;4131438;34;20107;-94
2021/06/25 09:28:37;;;;;;;127.85;118.30;;;;;;;;;;4137359;34;20088;-94
2021/06/25 09:31:27;;;;;;;43.30;40.35;;;;;;;;;;4142672;34;20100;-95
2021/06/25 09:33:56;;;;;;;147.65;136.05;;;;;;;;;;4126484;34;20088;-93
2021/06/25 09:36:35;;;;;;;23.65;22.20;;;;;;;;;;4133469;34;20075;-95
2021/06/25 09:39:14;;;;;;;63.95;59.83;;;;;;;;;;4133491;34;20157;-95
2021/06/25 09:41:44;;;;;;;74.20;69.97;;;;;;;;;;4134255;34;20150;-95
2021/06/25 09:44:16;;;;;;;70.57;65.65;;;;;;;;;;4131327;34;20118;-93
2021/06/25 09:46:53;;;;;;;74.30;69.53;;;;;;;;;;4134357;34;20497;-95
2021/06/25 09:49:29;;;;;;;131.48;120.32;;;;;;;;;;4137081;34;20533;-93
2021/06/25 09:52:19;;;;;;;35.55;33.05;;;;;;;;;;4138045;34;20159;-93
2021/06/25 09:55:06;;;;;;;69.53;64.57;;;;;;;;;;4137474;34;20052;-94
2021/06/25 09:58:08;;;;;;;37.75;35.17;;;;;;;;;;4147198;34;20096;-95
2021/06/25 10:01:21;;;;;;;60.72;56.45;;;;;;;;;;4145495;34;20126;-94
2021/06/25 10:03:35;;;;;;;51.95;48.30;;;;;;;;;;4142536;34;20135;-95
2021/06/25 10:06:14;;;;;;;11.73;8.20;;;;;;;;;;4127492;34;20056;-96
2021/06/25 10:08:44;;;;;;;23.20;21.50;;;;;;;;;;4132705;34;20068;-94
2021/06/25 10:11:22;;;;;;;89.10;81.95;;;;;;;;;;4127361;34;20060;-92
2021/06/25 10:13:56;;;;;;;42.75;39.97;;;;;;;;;;4135851;34;20061;-95
2021/06/25 10:16:31;;;;;;;25.67;23.12;;;;;;;;;;4130880;34;20948;-95
2021/06/25 10:19:13;;;;;;;62.47;58.13;;;;;;;;;;4129602;34;20076;-95
2021/06/25 10:21:49;;;;;;;25.33;23.30;;;;;;;;;;4123888;34;20393;-93
2021/06/25 10:24:23;;;;;;;37.08;34.42;;;;;;;;;;4125331;34;21040;-94
2021/06/25 10:27:21;;;;;;;35.00;32.45;;;;;;;;;;4131527;34;20072;-94
2021/06/25 10:29:57;;;;;;;50.20;46.78;;;;;;;;;;4132043;34;20127;-94
2021/06/25 10:32:32;;;;;;;25.42;23.60;;;;;;;;;;4134772;34;20084;-95
2021/06/25 10:35:06;;;;;;;29.90;27.65;;;;;;;;;;4130961;34;20069;-94
2021/06/25 10:37:34;;;;;;;61.70;57.05;;;;;;;;;;4135659;34;20061;-94
2021/06/25 10:40:07;;;;;;;;;;;;;;;;;;4128955;34;20481;-94
2021/06/25 10:42:44;;;;;;;10.40;7.28;;;;;;;;;;4136826;34;19970;-95
2021/06/25 10:45:17;;;;;;;53.78;50.20;;;;;;;;;;4136529;34;20100;-96
2021/06/25 10:47:57;;;;;;;81.65;58.95;;;;;;;;;;4142430;34;21632;-96
2021/06/25 10:50:29;;;;;;;46.10;43.10;;;;;;;;;;4139614;34;20105;-93
2021/06/25 10:53:12;;;;;;;43.13;40.27;;;;;;;;;;4129703;34;20068;-93
2021/06/25 10:56:01;;;;;;;119.00;110.00;;;;;;;;;;4130531;34;20065;-93
2021/06/25 10:58:31;;;;;;;78.35;72.30;;;;;;;;;;4130042;34;20079;-94
2021/06/25 11:01:05;;;;;;;65.15;60.50;;;;;;;;;;4137695;34;20073;-94
2021/06/25 11:03:42;;;;;;;17.37;15.95;;;;;;;;;;4140670;34;20073;-96
2021/06/25 11:06:37;;;;;;;46.63;42.85;;;;;;;;;;4127536;34;20490;-94
2021/06/25 11:09:07;;;;;;;88.80;81.70;;;;;;;;;;4141455;34;20131;-95
2021/06/25 11:11:39;;;;;;;62.67;58.08;;;;;;;;;;4124605;34;20081;-95
2021/06/25 11:14:23;;;;;;;118.87;109.00;;;;;;;;;;4134488;34;20111;-94
2021/06/25 11:17:02;;;;;;;92.57;85.12;;;;;;;;;;4140049;34;20072;-95
2021/06/25 11:19:43;;;;;;;56.50;52.33;;;;;;;;;;4129584;34;20076;-95
2021/06/25 11:22:34;;;;;;;48.45;45.08;;;;;;;;;;4131450;34;20795;-96
2021/06/25 11:25:08;;;;;;;72.05;66.70;;;;;;;;;;4136202;34;20101;-94
2021/06/25 11:28:08;;;;;;;20.00;18.50;;;;;;;;;;4136526;34;20115;-96
2021/06/25 11:31:00;;;;;;;14.85;13.52;;;;;;;;;;4146569;34;20053;-95
2021/06/25 11:33:50;;;;;;;55.63;51.70;;;;;;;;;;4136117;34;20154;-94
2021/06/25 11:36:32;;;;;;;91.43;84.82;;;;;;;;;;4136401;34;20127;-92
2021/06/25 11:39:06;;;;;;;37.83;35.30;;;;;;;;;;4141295;34;20100;-95
2021/06/25 11:41:35;;;;;;;;;;;;;;;;;;4138956;34;20599;-95
2021/06/25 11:44:13;;;;;;;52.00;48.42;;;;;;;;;;4129178;34;19948;-95
2021/06/25 11:47:00;;;;;;;180.07;165.85;;;;;;;;;;4144947;34;20076;-95
2021/06/25 11:49:40;;;;;;;36.47;34.03;;;;;;;;;;4137266;34;20075;-96
2021/06/25 11:52:23;;;;;;;128.70;116.93;;;;;;;;;;4131646;34;20120;-96
2021/06/25 11:55:03;;;;;;;94.93;88.10;;;;;;;;;;4128146;34;20127;-94
2021/06/25 11:57:33;;;;;;;28.30;26.17;;;;;;;;;;4146660;34;20076;-94
2021/06/25 12:00:13;;;;;;;78.43;73.70;;;;;;;;;;4129865;34;20097;-94
2021/06/25 12:03:03;;;;;;;96.95;90.53;;;;;;;;;;4136516;34;20060;-94
2021/06/25 12:05:35;;;;;;;58.83;54.95;;;;;;;;;;4136109;34;20084;-96
2021/06/25 12:08:07;;;;;;;93.55;86.55;;;;;;;;;;4134954;34;20118;-95
2021/06/25 12:10:38;;;;;;;;;;;;;;;;;;4127865;34;20126;-93
2021/06/25 12:13:16;;;;;;;44.78;41.85;;;;;;;;;;4140477;34;19972;-95
2021/06/25 12:15:45;;;;;;;95.80;89.87;;;;;;;;;;4128280;34;20064;-96
2021/06/25 12:18:18;;;;;;;28.08;26.25;;;;;;;;;;4136036;34;20068;-96
2021/06/25 12:21:04;;;;;;;23.98;22.13;;;;;;;;;;4127390;34;20151;-96
2021/06/25 12:23:38;;;;;;;102.12;91.95;;;;;;;;;;4138300;34;20127;-96
2021/06/25 12:26:20;;;;;;;25.88;24.05;;;;;;;;;;4124740;34;20061;-95
2021/06/25 12:29:10;;;;;;;62.45;56.92;;;;;;;;;;4137593;34;20065;-95
2021/06/25 12:32:13;;;;;;;95.20;88.95;;;;;;;;;;4132327;34;20111;-96
2021/06/25 12:34:44;;;;;;;82.20;77.20;;;;;;;;;;4135776;34;20119;-95
2021/06/25 12:37:19;;;;;;;73.22;68.60;;;;;;;;;;4147881;34;20056;-96
2021/06/25 12:39:53;;;;;;;97.65;91.87;;;;;;;;;;4134457;34;20383;-96
2021/06/25 12:42:21;;;;;;;124.57;115.88;;;;;;;;;;4131563;34;20114;-92
2021/06/25 12:45:04;;;;;;;64.85;60.00;;;;;;;;;;4136512;34;20060;-93
2021/06/25 12:47:40;;;;;;;35.65;33.15;;;;;;;;;;4150016;34;20088;-94
2021/06/25 12:50:13;;;;;;;74.05;68.62;;;;;;;;;;4141071;34;20107;-94
2021/06/25 12:52:44;;;;;;;81.95;76.47;;;;;;;;;;4127539;34;20114;-94
2021/06/25 12:55:16;;;;;;;115.60;108.05;;;;;;;;;;4148308;34;20084;-94
2021/06/25 12:57:50;;;;;;;132.50;123.07;;;;;;;;;;4139549;34;20537;-93
2021/06/25 13:00:19;;;;;;;57.20;53.47;;;;;;;;;;4137996;34;21006;-95
2021/06/25 13:02:50;;;;;;;69.90;65.03;;;;;;;;;;4128211;34;20508;-91
2021/06/25 13:05:35;;;;;;;24.33;22.10;;;;;;;;;;4141795;34;20064;-95
2021/06/25 13:08:19;;;;;;;186.70;172.75;;;;;;;;;;4139582;34;20427;-93
2021/06/25 13:10:51;;;;;;;202.30;187.85;;;;;;;;;;4136625;34;20077;-92
2021/06/25 13:13:20;;;;;;;32.58;30.05;;;;;;;;;;4146027;34;20056;-94
2021/06/25 13:15:55;;;;;;;41.22;38.08;;;;;;;;;;4138693;34;20130;-93
2021/06/25 13:18:27;;;;;;;34.92;32.30;;;;;;;;;;4128835;34;20096;-94
2021/06/25 13:21:18;;;;;;;28.17;26.10;;;;;;;;;;4146752;34;20099;-93
2021/06/25 13:23:49;;;;;;;91.43;83.12;;;;;;;;;;4139140;34;20074;-93
2021/06/25 13:26:31;;;;;;;70.00;63.95;;;;;;;;;;4116371;34;20576;-94
2021/06/25 13:29:00;;;;;;;57.35;53.30;;;;;;;;;;4133023;34;20099;-93
2021/06/25 13:31:39;;;;;;;40.30;37.78;;;;;;;;;;4133684;34;20032;-95
2021/06/25 13:34:54;;;;;;;116.25;108.70;;;;;;;;;;4148510;34;20056;-95
2021/06/25 13:38:38;;;;;;;44.00;40.03;;;;;;;;;;4153524;34;20084;-95
2021/06/25 13:48:51;;;;;;;33.83;31.40;;;;;;;;;;4117848;34;20077;-95
2021/06/25 13:51:49;;;;;;;100.10;93.00;;;;;;;;;;4110450;34;20111;-96
2021/06/25 13:54:55;;;;;;;82.40;76.70;;;;;;;;;;4102802;34;20057;-96
2021/06/25 13:58:11;;;;;;;95.87;88.97;;;;;;;;;;4098897;34;20077;-96
2021/06/25 14:00:53;;;;;;;41.47;38.67;;;;;;;;;;4109928;34;20139;-95
2021/06/25 14:04:03;;;;;;;143.30;133.27;;;;;;;;;;4069760;35;20616;-95
2021/06/25 14:07:04;;;;;;;15.20;13.50;;;;;;;;;;4069903;35;20101;-96
2021/06/25 14:13:33;;;;;;;144.40;134.68;;;;;;;;;;4066867;35;20169;-95
2021/06/25 14:16:41;;;;;;;;;;;;;;;;;;;;;
2021/06/25 14:20:01;;;;;;;;;;;;;;;;;;;;;
2021/06/25 14:23:02;;;;;;;40.42;34.75;;;;;;;;;;4159081;34;20211;-96
2021/06/25 14:26:11;;;;;;;15.15;13.85;;;;;;;;;;4144026;34;20062;-95
2021/06/25 14:33:06;;;;;;;124.85;116.03;;;;;;;;;;4127842;34;20053;-96
2021/06/25 14:36:24;;;;;;;82.35;76.28;;;;;;;;;;4133585;34;20081;-95
2021/06/25 14:39:20;;;;;;;82.57;77.37;;;;;;;;;;4124356;34;20134;-96
2021/06/25 14:43:09;;;;;;;38.97;35.38;;;;;;;;;;4135184;34;20092;-96
2021/06/25 14:46:37;;;;;;;;;;;;;;;;;;;;;
2021/06/25 14:49:46;;;;;;;54.90;51.13;;;;;;;;;;4400395;29;20443;-84
2021/06/25 14:52:18;;;;;;;101.53;92.85;;;;;;;;;;4111057;34;20108;-85
2021/06/25 14:54:47;;;;;;;56.00;51.42;;;;;;;;;;4105214;34;20914;-86
2021/06/25 14:57:21;;;;;;;25.62;23.42;;;;;;;;;;4095051;34;20439;-88
2021/06/25 14:59:50;;;;;;;84.13;78.95;;;;;;;;;;4096907;34;20171;-86
2021/06/25 15:02:19;;;;;;;141.55;132.02;;;;;;;;;;4106799;34;20179;-86
2021/06/25 15:04:50;;;;;;;38.50;35.47;;;;;;;;;;4107642;34;20189;-86
2021/06/25 15:07:21;;;;;;;41.90;38.42;;;;;;;;;;4116957;34;20065;-86
2021/06/25 15:09:50;;;;;;;34.97;32.13;;;;;;;;;;4102729;34;20060;-86
2021/06/25 15:12:19;;;;;;;96.07;89.75;;;;;;;;;;4108014;34;20179;-85
2021/06/25 15:14:48;;;;;;;139.55;130.75;;;;;;;;;;4109799;34;20116;-86
2021/06/25 15:17:17;;;;;;;75.20;69.03;;;;;;;;;;4109240;34;20654;-86
2021/06/25 15:19:45;;;;;;;56.17;52.28;;;;;;;;;;4119179;34;20065;-86
2021/06/25 15:22:15;;;;;;;34.25;31.62;;;;;;;;;;4111404;34;20091;-87
2021/06/25 15:24:44;;;;;;;59.25;54.67;;;;;;;;;;4101300;34;20111;-87
2021/06/25 15:27:12;;;;;;;26.58;24.45;;;;;;;;;;4104366;34;20111;-85
2021/06/25 15:29:42;;;;;;;97.18;90.62;;;;;;;;;;4107597;34;20135;-87
2021/06/25 15:32:14;;;;;;;81.85;75.62;;;;;;;;;;4104168;34;20153;-86
2021/06/25 15:34:47;;;;;;;24.58;22.52;;;;;;;;;;4108973;34;20913;-86